sensor_id;sensor_type;location;lat;lon;timestamp;P1;durP1;ratioP1;P2;durP2;ratioP2
21899;SDS011;11114;50.658;12.704;2023-06-22T00:02:29;19.40;;;18.00;;
21899;SDS011;11114;50.658;12.704;2023-06-22T00:05:16;20.58;;;18.77;;
21899;SDS011;11114;50.658;12.704;2023-06-22T00:08:02;19.85;;;18.10;;
21899;SDS011;11114;50.658;12.704;2023-06-22T00:10:51;19.10;;;17.50;;
21899;SDS011;11114;50.658;12.704;2023-06-22T00:13:38;19.17;;;17.67;;
21899;SDS011;11114;50.658;12.704;2023-06-22T00:16:25;19.27;;;17.77;;
21899;SDS011;11114;50.658;12.704;2023-06-22T00:19:12;19.48;;;17.98;;
21899;SDS011;11114;50.658;12.704;2023-06-22T00:21:59;18.30;;;16.98;;
21899;SDS011;11114;50.658;12.704;2023-06-22T00:24:46;19.02;;;17.42;;
21899;SDS011;11114;50.658;12.704;2023-06-22T00:27:33;17.88;;;16.48;;
21899;SDS011;11114;50.658;12.704;2023-06-22T00:30:19;18.17;;;16.77;;
21899;SDS011;11114;50.658;12.704;2023-06-22T00:33:06;17.85;;;16.42;;
21899;SDS011;11114;50.658;12.704;2023-06-22T00:35:53;18.90;;;17.15;;
21899;SDS011;11114;50.658;12.704;2023-06-22T00:38:39;18.10;;;16.80;;
21899;SDS011;11114;50.658;12.704;2023-06-22T00:41:26;18.17;;;16.77;;
21899;SDS011;11114;50.658;12.704;2023-06-22T00:44:15;18.45;;;16.85;;
21899;SDS011;11114;50.658;12.704;2023-06-22T00:47:02;17.13;;;15.90;;
21899;SDS011;11114;50.658;12.704;2023-06-22T00:49:49;19.13;;;17.63;;
21899;SDS011;11114;50.658;12.704;2023-06-22T00:52:39;19.55;;;18.05;;
21899;SDS011;11114;50.658;12.704;2023-06-22T00:55:29;19.83;;;18.33;;
21899;SDS011;11114;50.658;12.704;2023-06-22T00:58:18;20.85;;;19.25;;
21899;SDS011;11114;50.658;12.704;2023-06-22T01:01:08;20.45;;;18.85;;
21899;SDS011;11114;50.658;12.704;2023-06-22T01:15:51;19.10;;;17.58;;
21899;SDS011;11114;50.658;12.704;2023-06-22T01:18:45;19.70;;;18.20;;
21899;SDS011;11114;50.658;12.704;2023-06-22T01:21:36;20.85;;;19.15;;
21899;SDS011;11114;50.658;12.704;2023-06-22T01:24:28;20.35;;;18.63;;
21899;SDS011;11114;50.658;12.704;2023-06-22T01:30:31;19.67;;;18.17;;
21899;SDS011;11114;50.658;12.704;2023-06-22T01:33:22;19.23;;;17.83;;
21899;SDS011;11114;50.658;12.704;2023-06-22T01:36:10;20.98;;;19.23;;
21899;SDS011;11114;50.658;12.704;2023-06-22T01:38:58;19.52;;;18.10;;
21899;SDS011;11114;50.658;12.704;2023-06-22T01:41:45;20.38;;;18.67;;
21899;SDS011;11114;50.658;12.704;2023-06-22T01:44:33;20.67;;;18.98;;
21899;SDS011;11114;50.658;12.704;2023-06-22T01:47:23;20.95;;;19.25;;
21899;SDS011;11114;50.658;12.704;2023-06-22T01:50:11;21.67;;;19.85;;
21899;SDS011;11114;50.658;12.704;2023-06-22T01:52:58;21.55;;;19.85;;
21899;SDS011;11114;50.658;12.704;2023-06-22T01:55:44;22.35;;;20.67;;
21899;SDS011;11114;50.658;12.704;2023-06-22T01:58:31;21.77;;;20.02;;
21899;SDS011;11114;50.658;12.704;2023-06-22T02:01:20;20.48;;;18.88;;
21899;SDS011;11114;50.658;12.704;2023-06-22T02:04:16;21.17;;;19.58;;
21899;SDS011;11114;50.658;12.704;2023-06-22T02:07:12;22.40;;;20.30;;
21899;SDS011;11114;50.658;12.704;2023-06-22T02:10:03;20.73;;;18.98;;
21899;SDS011;11114;50.658;12.704;2023-06-22T02:12:53;19.63;;;18.10;;
21899;SDS011;11114;50.658;12.704;2023-06-22T02:15:40;20.98;;;19.27;;
21899;SDS011;11114;50.658;12.704;2023-06-22T02:18:30;20.83;;;19.02;;
21899;SDS011;11114;50.658;12.704;2023-06-22T02:21:18;20.08;;;18.55;;
21899;SDS011;11114;50.658;12.704;2023-06-22T02:24:05;19.73;;;18.23;;
21899;SDS011;11114;50.658;12.704;2023-06-22T02:26:51;20.25;;;18.65;;
21899;SDS011;11114;50.658;12.704;2023-06-22T02:29:38;19.73;;;18.33;;
21899;SDS011;11114;50.658;12.704;2023-06-22T02:32:24;19.58;;;17.92;;
21899;SDS011;11114;50.658;12.704;2023-06-22T02:35:11;20.02;;;18.33;;
21899;SDS011;11114;50.658;12.704;2023-06-22T02:37:58;18.98;;;17.50;;
21899;SDS011;11114;50.658;12.704;2023-06-22T02:40:46;19.35;;;17.95;;
21899;SDS011;11114;50.658;12.704;2023-06-22T02:43:33;19.77;;;18.27;;
21899;SDS011;11114;50.658;12.704;2023-06-22T02:46:19;19.88;;;18.17;;
21899;SDS011;11114;50.658;12.704;2023-06-22T02:49:07;20.88;;;19.27;;
21899;SDS011;11114;50.658;12.704;2023-06-22T02:51:53;20.02;;;18.40;;
21899;SDS011;11114;50.658;12.704;2023-06-22T02:54:40;21.38;;;19.77;;
21899;SDS011;11114;50.658;12.704;2023-06-22T02:57:27;21.38;;;19.58;;
21899;SDS011;11114;50.658;12.704;2023-06-22T03:00:14;17.98;;;16.63;;
21899;SDS011;11114;50.658;12.704;2023-06-22T03:03:05;19.92;;;18.33;;
21899;SDS011;11114;50.658;12.704;2023-06-22T03:05:52;21.10;;;19.40;;
21899;SDS011;11114;50.658;12.704;2023-06-22T03:08:41;21.52;;;19.83;;
21899;SDS011;11114;50.658;12.704;2023-06-22T03:11:28;20.88;;;19.23;;
21899;SDS011;11114;50.658;12.704;2023-06-22T03:14:15;21.52;;;19.73;;
21899;SDS011;11114;50.658;12.704;2023-06-22T03:17:03;19.58;;;18.15;;
21899;SDS011;11114;50.658;12.704;2023-06-22T03:19:51;20.08;;;18.58;;
21899;SDS011;11114;50.658;12.704;2023-06-22T03:22:39;19.95;;;18.45;;
21899;SDS011;11114;50.658;12.704;2023-06-22T03:25:27;19.65;;;18.17;;
21899;SDS011;11114;50.658;12.704;2023-06-22T03:28:14;20.73;;;19.13;;
21899;SDS011;11114;50.658;12.704;2023-06-22T03:31:00;20.02;;;18.42;;
21899;SDS011;11114;50.658;12.704;2023-06-22T03:33:48;20.23;;;18.63;;
21899;SDS011;11114;50.658;12.704;2023-06-22T03:36:36;19.65;;;18.15;;
21899;SDS011;11114;50.658;12.704;2023-06-22T03:39:22;20.65;;;19.05;;
21899;SDS011;11114;50.658;12.704;2023-06-22T03:42:08;21.85;;;20.15;;
21899;SDS011;11114;50.658;12.704;2023-06-22T03:44:54;20.77;;;19.20;;
21899;SDS011;11114;50.658;12.704;2023-06-22T03:47:41;21.45;;;19.63;;
21899;SDS011;11114;50.658;12.704;2023-06-22T03:50:27;19.38;;;17.73;;
21899;SDS011;11114;50.658;12.704;2023-06-22T03:53:15;20.70;;;19.10;;
21899;SDS011;11114;50.658;12.704;2023-06-22T03:56:02;20.65;;;19.02;;
21899;SDS011;11114;50.658;12.704;2023-06-22T03:58:49;19.92;;;18.52;;
21899;SDS011;11114;50.658;12.704;2023-06-22T04:01:35;20.77;;;19.27;;
21899;SDS011;11114;50.658;12.704;2023-06-22T04:04:22;21.65;;;20.05;;
21899;SDS011;11114;50.658;12.704;2023-06-22T04:07:09;20.63;;;19.02;;
21899;SDS011;11114;50.658;12.704;2023-06-22T04:09:56;19.88;;;18.38;;
21899;SDS011;11114;50.658;12.704;2023-06-22T04:12:42;20.00;;;18.40;;
21899;SDS011;11114;50.658;12.704;2023-06-22T04:15:29;20.52;;;19.02;;
21899;SDS011;11114;50.658;12.704;2023-06-22T04:18:15;22.73;;;20.75;;
21899;SDS011;11114;50.658;12.704;2023-06-22T04:21:02;22.50;;;20.67;;
21899;SDS011;11114;50.658;12.704;2023-06-22T04:23:50;21.85;;;20.25;;
21899;SDS011;11114;50.658;12.704;2023-06-22T04:26:36;21.13;;;19.38;;
21899;SDS011;11114;50.658;12.704;2023-06-22T04:29:23;22.70;;;21.02;;
21899;SDS011;11114;50.658;12.704;2023-06-22T04:32:15;22.25;;;20.60;;
21899;SDS011;11114;50.658;12.704;2023-06-22T04:35:05;21.52;;;19.92;;
21899;SDS011;11114;50.658;12.704;2023-06-22T04:37:52;21.83;;;19.90;;
21899;SDS011;11114;50.658;12.704;2023-06-22T04:40:41;22.52;;;20.73;;
21899;SDS011;11114;50.658;12.704;2023-06-22T04:43:28;21.10;;;19.60;;
21899;SDS011;11114;50.658;12.704;2023-06-22T04:46:17;22.15;;;20.45;;
21899;SDS011;11114;50.658;12.704;2023-06-22T04:49:07;21.08;;;19.48;;
21899;SDS011;11114;50.658;12.704;2023-06-22T04:51:57;20.10;;;18.35;;
21899;SDS011;11114;50.658;12.704;2023-06-22T04:54:47;21.30;;;19.67;;
21899;SDS011;11114;50.658;12.704;2023-06-22T04:57:35;21.73;;;20.02;;
21899;SDS011;11114;50.658;12.704;2023-06-22T05:00:22;21.65;;;19.98;;
21899;SDS011;11114;50.658;12.704;2023-06-22T05:03:09;22.35;;;20.65;;
21899;SDS011;11114;50.658;12.704;2023-06-22T05:06:06;22.40;;;20.70;;
21899;SDS011;11114;50.658;12.704;2023-06-22T05:08:55;29.42;;;26.73;;
21899;SDS011;11114;50.658;12.704;2023-06-22T05:11:45;24.00;;;22.15;;
21899;SDS011;11114;50.658;12.704;2023-06-22T05:14:32;22.83;;;21.02;;
21899;SDS011;11114;50.658;12.704;2023-06-22T05:17:19;22.05;;;20.35;;
21899;SDS011;11114;50.658;12.704;2023-06-22T05:20:05;21.83;;;20.23;;
21899;SDS011;11114;50.658;12.704;2023-06-22T05:22:52;22.52;;;20.83;;
21899;SDS011;11114;50.658;12.704;2023-06-22T05:25:39;21.50;;;19.90;;
21899;SDS011;11114;50.658;12.704;2023-06-22T05:28:26;23.20;;;21.27;;
21899;SDS011;11114;50.658;12.704;2023-06-22T05:31:13;23.05;;;21.25;;
21899;SDS011;11114;50.658;12.704;2023-06-22T05:34:00;22.67;;;20.88;;
21899;SDS011;11114;50.658;12.704;2023-06-22T05:36:47;22.75;;;20.75;;
21899;SDS011;11114;50.658;12.704;2023-06-22T05:39:34;22.45;;;20.55;;
21899;SDS011;11114;50.658;12.704;2023-06-22T05:42:23;22.92;;;21.02;;
21899;SDS011;11114;50.658;12.704;2023-06-22T05:45:12;22.27;;;20.42;;
21899;SDS011;11114;50.658;12.704;2023-06-22T05:47:58;22.42;;;20.63;;
21899;SDS011;11114;50.658;12.704;2023-06-22T05:50:45;22.08;;;20.48;;
21899;SDS011;11114;50.658;12.704;2023-06-22T05:53:31;21.65;;;19.95;;
21899;SDS011;11114;50.658;12.704;2023-06-22T05:56:17;21.45;;;19.80;;
21899;SDS011;11114;50.658;12.704;2023-06-22T05:59:04;21.45;;;19.75;;
21899;SDS011;11114;50.658;12.704;2023-06-22T06:01:51;23.58;;;21.33;;
21899;SDS011;11114;50.658;12.704;2023-06-22T06:04:38;22.92;;;20.90;;
21899;SDS011;11114;50.658;12.704;2023-06-22T06:07:24;22.30;;;20.50;;
21899;SDS011;11114;50.658;12.704;2023-06-22T06:10:12;26.52;;;24.63;;
21899;SDS011;11114;50.658;12.704;2023-06-22T06:12:59;20.38;;;18.88;;
21899;SDS011;11114;50.658;12.704;2023-06-22T06:15:48;24.15;;;22.15;;
21899;SDS011;11114;50.658;12.704;2023-06-22T06:18:36;21.98;;;20.10;;
21899;SDS011;11114;50.658;12.704;2023-06-22T06:21:24;20.90;;;19.20;;
21899;SDS011;11114;50.658;12.704;2023-06-22T06:24:11;22.17;;;20.40;;
21899;SDS011;11114;50.658;12.704;2023-06-22T06:26:59;21.10;;;19.55;;
21899;SDS011;11114;50.658;12.704;2023-06-22T06:29:45;19.52;;;17.92;;
21899;SDS011;11114;50.658;12.704;2023-06-22T06:32:34;20.02;;;18.42;;
21899;SDS011;11114;50.658;12.704;2023-06-22T06:35:21;19.65;;;17.98;;
21899;SDS011;11114;50.658;12.704;2023-06-22T06:38:07;18.13;;;16.83;;
21899;SDS011;11114;50.658;12.704;2023-06-22T06:40:54;18.52;;;17.15;;
21899;SDS011;11114;50.658;12.704;2023-06-22T06:43:41;17.83;;;16.27;;
21899;SDS011;11114;50.658;12.704;2023-06-22T06:46:30;17.15;;;15.95;;
21899;SDS011;11114;50.658;12.704;2023-06-22T06:49:17;18.75;;;17.13;;
21899;SDS011;11114;50.658;12.704;2023-06-22T06:52:04;18.65;;;17.25;;
21899;SDS011;11114;50.658;12.704;2023-06-22T06:54:50;17.33;;;16.10;;
21899;SDS011;11114;50.658;12.704;2023-06-22T06:57:38;17.63;;;16.33;;
21899;SDS011;11114;50.658;12.704;2023-06-22T07:00:25;18.25;;;16.85;;
21899;SDS011;11114;50.658;12.704;2023-06-22T07:03:12;17.63;;;16.27;;
21899;SDS011;11114;50.658;12.704;2023-06-22T07:05:59;16.45;;;15.15;;
21899;SDS011;11114;50.658;12.704;2023-06-22T07:08:46;15.85;;;14.75;;
21899;SDS011;11114;50.658;12.704;2023-06-22T07:11:32;16.13;;;14.90;;
21899;SDS011;11114;50.658;12.704;2023-06-22T07:14:19;16.80;;;15.30;;
21899;SDS011;11114;50.658;12.704;2023-06-22T07:17:05;17.63;;;16.17;;
21899;SDS011;11114;50.658;12.704;2023-06-22T07:19:52;15.48;;;14.02;;
21899;SDS011;11114;50.658;12.704;2023-06-22T07:22:40;16.80;;;15.60;;
21899;SDS011;11114;50.658;12.704;2023-06-22T07:25:28;16.88;;;15.57;;
21899;SDS011;11114;50.658;12.704;2023-06-22T07:28:17;16.48;;;15.18;;
21899;SDS011;11114;50.658;12.704;2023-06-22T07:31:03;16.20;;;15.00;;
21899;SDS011;11114;50.658;12.704;2023-06-22T07:33:50;16.33;;;15.00;;
21899;SDS011;11114;50.658;12.704;2023-06-22T07:36:36;16.83;;;15.50;;
21899;SDS011;11114;50.658;12.704;2023-06-22T07:39:22;15.50;;;14.13;;
21899;SDS011;11114;50.658;12.704;2023-06-22T07:42:12;17.17;;;15.63;;
21899;SDS011;11114;50.658;12.704;2023-06-22T07:45:00;16.05;;;14.85;;
21899;SDS011;11114;50.658;12.704;2023-06-22T07:47:46;14.55;;;13.45;;
21899;SDS011;11114;50.658;12.704;2023-06-22T07:50:33;14.85;;;13.70;;
21899;SDS011;11114;50.658;12.704;2023-06-22T07:53:20;15.75;;;14.43;;
21899;SDS011;11114;50.658;12.704;2023-06-22T07:56:11;14.90;;;13.70;;
21899;SDS011;11114;50.658;12.704;2023-06-22T07:58:59;15.10;;;13.90;;
21899;SDS011;11114;50.658;12.704;2023-06-22T08:01:47;14.85;;;13.75;;
21899;SDS011;11114;50.658;12.704;2023-06-22T08:04:35;15.52;;;14.32;;
21899;SDS011;11114;50.658;12.704;2023-06-22T08:07:22;15.82;;;14.27;;
21899;SDS011;11114;50.658;12.704;2023-06-22T08:10:12;15.30;;;14.10;;
21899;SDS011;11114;50.658;12.704;2023-06-22T08:12:58;15.47;;;14.07;;
21899;SDS011;11114;50.658;12.704;2023-06-22T08:15:45;15.02;;;13.88;;
21899;SDS011;11114;50.658;12.704;2023-06-22T08:18:35;16.30;;;15.00;;
21899;SDS011;11114;50.658;12.704;2023-06-22T08:21:21;16.30;;;15.10;;
21899;SDS011;11114;50.658;12.704;2023-06-22T08:24:08;16.73;;;15.40;;
21899;SDS011;11114;50.658;12.704;2023-06-22T08:26:55;15.55;;;14.45;;
21899;SDS011;11114;50.658;12.704;2023-06-22T08:29:42;17.35;;;16.02;;
21899;SDS011;11114;50.658;12.704;2023-06-22T08:32:29;16.95;;;15.43;;
21899;SDS011;11114;50.658;12.704;2023-06-22T08:35:16;16.92;;;15.63;;
21899;SDS011;11114;50.658;12.704;2023-06-22T08:38:02;15.05;;;13.90;;
21899;SDS011;11114;50.658;12.704;2023-06-22T08:40:49;15.05;;;13.95;;
21899;SDS011;11114;50.658;12.704;2023-06-22T08:43:35;16.67;;;15.38;;
21899;SDS011;11114;50.658;12.704;2023-06-22T08:46:22;14.95;;;13.85;;
21899;SDS011;11114;50.658;12.704;2023-06-22T08:49:16;16.23;;;14.93;;
21899;SDS011;11114;50.658;12.704;2023-06-22T08:52:02;16.05;;;14.85;;
21899;SDS011;11114;50.658;12.704;2023-06-22T08:54:49;16.58;;;15.32;;
21899;SDS011;11114;50.658;12.704;2023-06-22T08:57:35;15.88;;;14.57;;
21899;SDS011;11114;50.658;12.704;2023-06-22T09:00:24;16.63;;;15.27;;
21899;SDS011;11114;50.658;12.704;2023-06-22T09:03:10;15.13;;;13.85;;
21899;SDS011;11114;50.658;12.704;2023-06-22T09:05:58;15.35;;;14.23;;
21899;SDS011;11114;50.658;12.704;2023-06-22T09:08:44;16.02;;;14.63;;
21899;SDS011;11114;50.658;12.704;2023-06-22T09:11:33;15.88;;;14.68;;
21899;SDS011;11114;50.658;12.704;2023-06-22T09:14:22;15.35;;;14.15;;
21899;SDS011;11114;50.658;12.704;2023-06-22T09:17:09;14.82;;;13.73;;
21899;SDS011;11114;50.658;12.704;2023-06-22T09:19:56;15.27;;;14.15;;
21899;SDS011;11114;50.658;12.704;2023-06-22T09:22:42;15.27;;;13.90;;
21899;SDS011;11114;50.658;12.704;2023-06-22T09:25:28;15.55;;;14.15;;
21899;SDS011;11114;50.658;12.704;2023-06-22T09:28:15;15.73;;;14.23;;
21899;SDS011;11114;50.658;12.704;2023-06-22T09:31:02;14.85;;;13.55;;
21899;SDS011;11114;50.658;12.704;2023-06-22T09:33:49;14.50;;;13.40;;
21899;SDS011;11114;50.658;12.704;2023-06-22T09:36:35;14.43;;;13.13;;
21899;SDS011;11114;50.658;12.704;2023-06-22T09:39:22;14.18;;;13.02;;
21899;SDS011;11114;50.658;12.704;2023-06-22T09:42:09;14.57;;;13.10;;
21899;SDS011;11114;50.658;12.704;2023-06-22T09:44:55;13.25;;;12.25;;
21899;SDS011;11114;50.658;12.704;2023-06-22T09:47:41;13.73;;;12.63;;
21899;SDS011;11114;50.658;12.704;2023-06-22T09:50:29;13.75;;;12.48;;
21899;SDS011;11114;50.658;12.704;2023-06-22T09:53:15;13.57;;;12.40;;
21899;SDS011;11114;50.658;12.704;2023-06-22T09:56:02;13.13;;;12.13;;
21899;SDS011;11114;50.658;12.704;2023-06-22T09:58:48;13.55;;;12.55;;
21899;SDS011;11114;50.658;12.704;2023-06-22T10:01:39;12.65;;;11.65;;
21899;SDS011;11114;50.658;12.704;2023-06-22T10:04:26;14.20;;;13.00;;
21899;SDS011;11114;50.658;12.704;2023-06-22T10:07:12;13.85;;;12.85;;
21899;SDS011;11114;50.658;12.704;2023-06-22T10:09:59;13.90;;;12.82;;
21899;SDS011;11114;50.658;12.704;2023-06-22T10:12:46;13.52;;;12.32;;
21899;SDS011;11114;50.658;12.704;2023-06-22T10:15:34;12.57;;;11.68;;
21899;SDS011;11114;50.658;12.704;2023-06-22T10:18:20;13.77;;;12.57;;
21899;SDS011;11114;50.658;12.704;2023-06-22T10:21:07;13.27;;;12.18;;
21899;SDS011;11114;50.658;12.704;2023-06-22T10:23:54;13.38;;;12.27;;
21899;SDS011;11114;50.658;12.704;2023-06-22T10:26:41;12.70;;;11.75;;
21899;SDS011;11114;50.658;12.704;2023-06-22T10:29:28;13.10;;;12.00;;
21899;SDS011;11114;50.658;12.704;2023-06-22T10:32:16;12.32;;;11.48;;
21899;SDS011;11114;50.658;12.704;2023-06-22T10:35:02;12.40;;;11.50;;
21899;SDS011;11114;50.658;12.704;2023-06-22T10:37:48;12.90;;;11.80;;
21899;SDS011;11114;50.658;12.704;2023-06-22T10:40:35;13.65;;;12.60;;
21899;SDS011;11114;50.658;12.704;2023-06-22T10:43:21;13.27;;;12.27;;
21899;SDS011;11114;50.658;12.704;2023-06-22T10:46:07;13.43;;;12.30;;
21899;SDS011;11114;50.658;12.704;2023-06-22T10:48:55;16.10;;;12.10;;
21899;SDS011;11114;50.658;12.704;2023-06-22T10:51:44;12.50;;;11.40;;
21899;SDS011;11114;50.658;12.704;2023-06-22T10:54:30;13.43;;;12.27;;
21899;SDS011;11114;50.658;12.704;2023-06-22T10:57:18;13.48;;;12.20;;
21899;SDS011;11114;50.658;12.704;2023-06-22T11:00:05;12.70;;;11.70;;
21899;SDS011;11114;50.658;12.704;2023-06-22T11:02:52;11.45;;;10.45;;
21899;SDS011;11114;50.658;12.704;2023-06-22T11:05:39;11.15;;;10.27;;
21899;SDS011;11114;50.658;12.704;2023-06-22T11:08:25;12.40;;;11.38;;
21899;SDS011;11114;50.658;12.704;2023-06-22T11:11:12;12.50;;;11.40;;
21899;SDS011;11114;50.658;12.704;2023-06-22T11:13:59;12.38;;;11.27;;
21899;SDS011;11114;50.658;12.704;2023-06-22T11:16:46;12.02;;;11.02;;
21899;SDS011;11114;50.658;12.704;2023-06-22T11:19:36;12.52;;;11.57;;
21899;SDS011;11114;50.658;12.704;2023-06-22T11:22:23;12.15;;;10.95;;
21899;SDS011;11114;50.658;12.704;2023-06-22T11:25:10;12.65;;;11.55;;
21899;SDS011;11114;50.658;12.704;2023-06-22T11:27:58;12.70;;;11.57;;
21899;SDS011;11114;50.658;12.704;2023-06-22T11:30:45;13.23;;;12.02;;
21899;SDS011;11114;50.658;12.704;2023-06-22T11:33:32;12.88;;;11.75;;
21899;SDS011;11114;50.658;12.704;2023-06-22T11:36:19;12.73;;;11.60;;
21899;SDS011;11114;50.658;12.704;2023-06-22T11:39:05;11.93;;;11.02;;
21899;SDS011;11114;50.658;12.704;2023-06-22T11:41:52;12.93;;;11.70;;
21899;SDS011;11114;50.658;12.704;2023-06-22T11:44:38;12.52;;;11.32;;
21899;SDS011;11114;50.658;12.704;2023-06-22T11:47:24;13.02;;;11.93;;
21899;SDS011;11114;50.658;12.704;2023-06-22T11:50:11;13.00;;;11.93;;
21899;SDS011;11114;50.658;12.704;2023-06-22T11:52:57;13.60;;;12.32;;
21899;SDS011;11114;50.658;12.704;2023-06-22T11:55:44;13.65;;;12.50;;
21899;SDS011;11114;50.658;12.704;2023-06-22T11:58:30;12.90;;;12.00;;
21899;SDS011;11114;50.658;12.704;2023-06-22T12:01:18;12.77;;;11.68;;
21899;SDS011;11114;50.658;12.704;2023-06-22T12:04:05;13.20;;;12.00;;
21899;SDS011;11114;50.658;12.704;2023-06-22T12:06:52;14.20;;;12.75;;
21899;SDS011;11114;50.658;12.704;2023-06-22T12:09:38;14.07;;;12.90;;
21899;SDS011;11114;50.658;12.704;2023-06-22T12:12:25;13.85;;;12.60;;
21899;SDS011;11114;50.658;12.704;2023-06-22T12:15:11;13.98;;;12.60;;
21899;SDS011;11114;50.658;12.704;2023-06-22T12:17:58;13.35;;;12.20;;
21899;SDS011;11114;50.658;12.704;2023-06-22T12:20:44;14.93;;;13.13;;
21899;SDS011;11114;50.658;12.704;2023-06-22T12:23:31;14.10;;;13.00;;
21899;SDS011;11114;50.658;12.704;2023-06-22T12:26:17;13.60;;;12.52;;
21899;SDS011;11114;50.658;12.704;2023-06-22T12:29:04;13.60;;;12.50;;
21899;SDS011;11114;50.658;12.704;2023-06-22T12:31:51;14.07;;;12.80;;
21899;SDS011;11114;50.658;12.704;2023-06-22T12:34:38;13.73;;;12.43;;
21899;SDS011;11114;50.658;12.704;2023-06-22T12:37:24;13.82;;;12.50;;
21899;SDS011;11114;50.658;12.704;2023-06-22T12:40:11;14.20;;;13.10;;
21899;SDS011;11114;50.658;12.704;2023-06-22T12:42:57;14.70;;;13.32;;
21899;SDS011;11114;50.658;12.704;2023-06-22T12:45:44;13.85;;;12.65;;
21899;SDS011;11114;50.658;12.704;2023-06-22T12:48:30;13.60;;;12.40;;
21899;SDS011;11114;50.658;12.704;2023-06-22T12:51:21;15.57;;;12.40;;
21899;SDS011;11114;50.658;12.704;2023-06-22T12:54:08;15.13;;;13.63;;
21899;SDS011;11114;50.658;12.704;2023-06-22T12:56:55;14.55;;;13.35;;
21899;SDS011;11114;50.658;12.704;2023-06-22T12:59:42;14.27;;;13.07;;
21899;SDS011;11114;50.658;12.704;2023-06-22T13:02:30;14.18;;;12.80;;
21899;SDS011;11114;50.658;12.704;2023-06-22T13:05:16;14.38;;;13.00;;
21899;SDS011;11114;50.658;12.704;2023-06-22T13:08:03;14.60;;;13.40;;
21899;SDS011;11114;50.658;12.704;2023-06-22T13:10:50;15.80;;;14.10;;
21899;SDS011;11114;50.658;12.704;2023-06-22T13:13:37;15.10;;;13.52;;
21899;SDS011;11114;50.658;12.704;2023-06-22T13:16:24;15.20;;;13.77;;
21899;SDS011;11114;50.658;12.704;2023-06-22T13:19:11;14.50;;;13.30;;
21899;SDS011;11114;50.658;12.704;2023-06-22T13:21:58;14.98;;;13.75;;
21899;SDS011;11114;50.658;12.704;2023-06-22T13:24:46;15.25;;;13.82;;
21899;SDS011;11114;50.658;12.704;2023-06-22T13:27:32;14.68;;;13.45;;
21899;SDS011;11114;50.658;12.704;2023-06-22T13:30:19;15.90;;;14.35;;
21899;SDS011;11114;50.658;12.704;2023-06-22T13:33:07;15.15;;;13.75;;
21899;SDS011;11114;50.658;12.704;2023-06-22T13:35:55;14.07;;;12.90;;
21899;SDS011;11114;50.658;12.704;2023-06-22T13:38:41;15.70;;;14.07;;
21899;SDS011;11114;50.658;12.704;2023-06-22T13:41:27;16.38;;;13.77;;
21899;SDS011;11114;50.658;12.704;2023-06-22T13:44:14;15.60;;;13.35;;
21899;SDS011;11114;50.658;12.704;2023-06-22T13:47:00;14.93;;;13.52;;
21899;SDS011;11114;50.658;12.704;2023-06-22T13:49:47;14.27;;;13.07;;
21899;SDS011;11114;50.658;12.704;2023-06-22T13:52:33;14.07;;;12.82;;
21899;SDS011;11114;50.658;12.704;2023-06-22T13:55:20;14.93;;;13.45;;
21899;SDS011;11114;50.658;12.704;2023-06-22T13:58:07;14.15;;;12.73;;
21899;SDS011;11114;50.658;12.704;2023-06-22T14:00:53;13.93;;;12.68;;
21899;SDS011;11114;50.658;12.704;2023-06-22T14:03:42;13.68;;;12.27;;
21899;SDS011;11114;50.658;12.704;2023-06-22T14:06:31;12.80;;;11.63;;
21899;SDS011;11114;50.658;12.704;2023-06-22T14:09:17;13.88;;;12.68;;
21899;SDS011;11114;50.658;12.704;2023-06-22T14:12:07;14.20;;;12.93;;
21899;SDS011;11114;50.658;12.704;2023-06-22T14:14:53;14.07;;;12.85;;
21899;SDS011;11114;50.658;12.704;2023-06-22T14:17:40;14.00;;;12.90;;
21899;SDS011;11114;50.658;12.704;2023-06-22T14:20:26;13.68;;;12.38;;
21899;SDS011;11114;50.658;12.704;2023-06-22T14:23:13;15.30;;;13.10;;
21899;SDS011;11114;50.658;12.704;2023-06-22T14:26:01;13.60;;;12.23;;
21899;SDS011;11114;50.658;12.704;2023-06-22T14:28:48;14.52;;;13.15;;
21899;SDS011;11114;50.658;12.704;2023-06-22T14:31:36;13.95;;;12.65;;
21899;SDS011;11114;50.658;12.704;2023-06-22T14:34:23;13.57;;;12.32;;
21899;SDS011;11114;50.658;12.704;2023-06-22T14:37:09;13.93;;;12.52;;
21899;SDS011;11114;50.658;12.704;2023-06-22T14:39:56;12.98;;;11.77;;
21899;SDS011;11114;50.658;12.704;2023-06-22T14:42:43;13.70;;;11.90;;
21899;SDS011;11114;50.658;12.704;2023-06-22T14:45:29;14.85;;;13.18;;
21899;SDS011;11114;50.658;12.704;2023-06-22T14:48:15;13.80;;;12.27;;
21899;SDS011;11114;50.658;12.704;2023-06-22T14:51:01;13.18;;;11.88;;
21899;SDS011;11114;50.658;12.704;2023-06-22T14:53:48;13.60;;;12.30;;
21899;SDS011;11114;50.658;12.704;2023-06-22T14:56:38;13.40;;;12.20;;
21899;SDS011;11114;50.658;12.704;2023-06-22T14:59:24;13.30;;;12.20;;
21899;SDS011;11114;50.658;12.704;2023-06-22T15:02:10;14.38;;;12.95;;
21899;SDS011;11114;50.658;12.704;2023-06-22T15:04:57;14.30;;;12.80;;
21899;SDS011;11114;50.658;12.704;2023-06-22T15:07:43;14.63;;;13.25;;
21899;SDS011;11114;50.658;12.704;2023-06-22T15:10:30;13.65;;;12.25;;
21899;SDS011;11114;50.658;12.704;2023-06-22T15:13:16;14.85;;;12.55;;
21899;SDS011;11114;50.658;12.704;2023-06-22T15:16:03;14.75;;;13.10;;
21899;SDS011;11114;50.658;12.704;2023-06-22T15:18:50;16.48;;;12.55;;
21899;SDS011;11114;50.658;12.704;2023-06-22T15:21:37;16.23;;;12.40;;
21899;SDS011;11114;50.658;12.704;2023-06-22T15:24:24;13.10;;;12.00;;
21899;SDS011;11114;50.658;12.704;2023-06-22T15:27:11;13.05;;;11.85;;
21899;SDS011;11114;50.658;12.704;2023-06-22T15:29:58;14.30;;;12.50;;
21899;SDS011;11114;50.658;12.704;2023-06-22T15:32:45;13.60;;;11.65;;
21899;SDS011;11114;50.658;12.704;2023-06-22T15:35:32;14.27;;;12.75;;
21899;SDS011;11114;50.658;12.704;2023-06-22T15:38:19;12.55;;;11.43;;
21899;SDS011;11114;50.658;12.704;2023-06-22T15:41:06;13.52;;;11.95;;
21899;SDS011;11114;50.658;12.704;2023-06-22T15:43:52;13.05;;;11.68;;
21899;SDS011;11114;50.658;12.704;2023-06-22T15:46:38;15.80;;;12.07;;
21899;SDS011;11114;50.658;12.704;2023-06-22T15:49:25;14.88;;;12.18;;
21899;SDS011;11114;50.658;12.704;2023-06-22T15:52:13;13.75;;;12.40;;
21899;SDS011;11114;50.658;12.704;2023-06-22T15:55:03;13.77;;;12.32;;
21899;SDS011;11114;50.658;12.704;2023-06-22T15:57:50;13.73;;;12.43;;
21899;SDS011;11114;50.658;12.704;2023-06-22T16:00:36;13.15;;;12.02;;
21899;SDS011;11114;50.658;12.704;2023-06-22T16:03:23;13.15;;;11.95;;
21899;SDS011;11114;50.658;12.704;2023-06-22T16:06:09;13.82;;;12.57;;
21899;SDS011;11114;50.658;12.704;2023-06-22T16:08:55;12.82;;;11.63;;
21899;SDS011;11114;50.658;12.704;2023-06-22T16:11:42;13.82;;;12.48;;
21899;SDS011;11114;50.658;12.704;2023-06-22T16:14:29;14.88;;;13.35;;
21899;SDS011;11114;50.658;12.704;2023-06-22T16:17:15;14.93;;;13.45;;
21899;SDS011;11114;50.658;12.704;2023-06-22T16:20:03;18.27;;;13.60;;